Urandangie, Australia
Current Conditions -  °F | °C
As of 6:30 PM on Friday 31 Oct 2014 (Local Time) from YBMA Reporting Station
Clear Clear  
Wind Chill: 100°   Ceiling: Unl
Heat Index: 100°   Visibility: 6mi
Dew Point: 21°   Wind: 7mph
Humidity: 6%   Direction: 10°N
Pressure: 29.74"   Gusts: NA
Location:  21.6°S, 138.3°E
Report Text: YBMA 310830Z AUTO 01006KT 9999 // NCD 38/M06 Q1007
Loading
Personal Weather Stations






























Interactive Weather Map
Tropical Storm Tracking
New forecast layout! Learn more

10-Day Weather Forecast

Advertisements
Track Severe Weather on mobile